Time;durP1;ratioP1;P1;durP2;ratioP2;P2;SDS_P1;SDS_P2;PMS_P1;PMS_P2;Temp;Humidity;BMP_temperature;BMP_pressure;BME280_temperature;BME280_humidity;BME280_pressure;Samples;Min_cycle;Max_cycle;Signal;HPM_P1;HPM_P2
2022/08/09 00:02:36;;;;;;;5.00;4.17;;;;;;;22.62;58.56;97119.00;6116235;23;20203;-73
2022/08/09 00:05:14;;;;;;;6.07;4.47;;;;;;;22.41;59.47;97098.97;6114049;23;20179;-73
2022/08/09 00:08:02;;;;;;;6.10;4.70;;;;;;;22.79;58.56;97108.66;6090097;23;20178;-73
2022/08/09 00:10:30;;;;;;;8.00;4.80;;;;;;;22.57;59.10;97108.00;6115391;23;20650;-73
2022/08/09 00:13:01;;;;;;;7.67;4.93;;;;;;;22.64;58.87;97105.66;6114747;23;20175;-72
2022/08/09 00:15:30;;;;;;;6.20;5.00;;;;;;;22.50;59.21;97104.22;6115487;23;20203;-73
2022/08/09 00:18:17;;;;;;;5.27;4.47;;;;;;;22.52;59.08;97099.66;6114058;23;20233;-74
2022/08/09 00:20:44;;;;;;;5.53;4.60;;;;;;;22.57;59.04;97102.72;6115498;23;20588;-73
2022/08/09 00:23:17;;;;;;;7.60;4.40;;;;;;;22.78;58.90;97101.72;6114870;23;20717;-73
2022/08/09 00:26:06;;;;;;;6.10;4.23;;;;;;;22.59;58.42;97103.44;6114432;23;20173;-72
2022/08/09 00:28:33;;;;;;;5.20;4.70;;;;;;;22.36;58.81;97094.13;6090206;23;20171;-72
2022/08/09 00:31:03;;;;;;;7.33;4.97;;;;;;;22.42;58.87;97104.13;6113844;23;20293;-72
2022/08/09 00:33:52;;;;;;;4.90;4.23;;;;;;;22.43;58.99;97104.94;6115747;23;20176;-72
2022/08/09 00:36:21;;;;;;;9.70;4.67;;;;;;;22.61;58.54;97100.63;6114991;23;20589;-73
2022/08/09 00:38:53;;;;;;;6.80;4.80;;;;;;;22.59;58.49;97098.16;6114664;23;20527;-73
2022/08/09 00:41:21;;;;;;;8.90;4.70;;;;;;;22.52;58.38;97102.28;6115809;23;20602;-73
2022/08/09 00:44:08;;;;;;;6.73;4.47;;;;;;;22.54;58.43;97100.38;6114209;23;20172;-73
2022/08/09 00:46:53;;;;;;;7.50;4.93;;;;;;;22.66;57.75;97103.69;6115569;23;20353;-73
2022/08/09 00:49:27;;;;;;;7.90;4.87;;;;;;;22.63;57.90;97096.88;6089327;23;20251;-73
2022/08/09 00:51:57;;;;;;;6.73;4.73;;;;;;;22.75;57.74;97104.66;6114323;23;20592;-72
2022/08/09 00:54:32;;;;;;;7.23;4.93;;;;;;;22.82;57.56;97105.72;6115664;23;20194;-72
2022/08/09 00:57:03;;;;;;;6.10;4.40;;;;;;;22.83;57.25;97099.47;6113948;23;20637;-72
2022/08/09 00:59:39;;;;;;;6.00;4.30;;;;;;;22.64;57.75;97105.66;6115571;23;20222;-73
2022/08/09 01:02:19;;;;;;;7.33;4.43;;;;;;;22.37;58.50;97103.72;6114968;23;20176;-72
2022/08/09 01:05:13;;;;;;;8.17;4.13;;;;;;;22.25;59.18;97107.50;6114634;23;20193;-72
2022/08/09 01:08:02;;;;;;;6.37;4.53;;;;;;;22.20;59.53;97114.97;6115485;23;20643;-72
2022/08/09 01:10:53;;;;;;;4.80;4.30;;;;;;;22.07;59.90;97111.78;6113934;23;20777;-72
2022/08/09 01:13:45;;;;;;;4.87;4.37;;;;;;;22.12;59.50;97120.13;6114770;23;20249;-71
2022/08/09 01:16:30;;;;;;;8.33;4.37;;;;;;;22.23;59.14;97109.44;6115428;23;20197;-72
2022/08/09 01:19:01;;;;;;;4.97;4.10;;;;;;;22.26;58.98;97110.94;6113738;23;20171;-72
2022/08/09 01:22:08;;;;;;;5.00;3.90;;;;;;;22.25;59.04;97120.69;6115209;23;20884;-72
2022/08/09 01:25:19;;;;;;;5.30;4.80;;;;;;;22.04;59.48;97113.88;6146124;23;20632;-72
2022/08/09 01:27:51;;;;;;;4.27;3.80;;;;;;;21.95;59.84;97118.16;6114025;23;20604;-72
2022/08/09 01:30:21;;;;;;;4.70;4.23;;;;;;;21.93;59.41;97114.84;6115053;23;20202;-72
2022/08/09 01:33:10;;;;;;;5.87;4.03;;;;;;;22.05;59.09;97105.81;6115390;23;20253;-72
2022/08/09 01:35:43;;;;;;;4.77;4.27;;;;;;;21.92;59.47;97105.28;6113684;23;20237;-72
2022/08/09 01:38:24;;;;;;;5.13;4.10;;;;;;;21.94;59.27;97100.69;6115296;23;20198;-72
2022/08/09 01:41:00;;;;;;;5.83;4.33;;;;;;;21.74;59.97;97093.72;6114206;23;20173;-72
2022/08/09 01:43:36;;;;;;;4.97;3.80;;;;;;;21.90;59.67;97091.38;6114576;23;20189;-72
2022/08/09 01:46:22;;;;;;;6.53;4.07;;;;;;;21.90;59.45;97090.56;6115296;23;20174;-73
2022/08/09 01:48:57;;;;;;;4.73;3.90;;;;;;;21.79;60.37;97080.94;6113650;23;20251;-72
2022/08/09 01:51:27;;;;;;;5.60;4.70;;;;;;;21.94;59.52;97084.88;6089791;23;20209;-73
2022/08/09 01:54:01;;;;;;;7.37;4.13;;;;;;;21.92;59.63;97076.25;6114360;23;20600;-72
2022/08/09 01:56:32;;;;;;;5.20;3.60;;;;;;;21.92;59.40;97080.69;6114485;23;20169;-71
2022/08/09 01:59:05;;;;;;;8.43;4.10;;;;;;;21.98;58.96;97077.50;6115445;23;20236;-72
2022/08/09 02:01:34;;;;;;;5.00;3.77;;;;;;;22.20;57.88;97085.13;6113373;23;20190;-71
2022/08/09 02:04:23;;;;;;;6.47;3.70;;;;;;;22.42;56.97;97082.19;6115101;23;20621;-72
2022/08/09 02:07:08;;;;;;;4.10;3.70;;;;;;;22.31;57.13;97080.53;6113976;23;20692;-73
2022/08/09 02:09:50;;;;;;;5.20;3.87;;;;;;;22.46;55.94;97087.03;6112374;23;20220;-73
2022/08/09 02:12:31;;;;;;;6.10;3.50;;;;;;;22.50;55.14;97077.84;6115268;23;20565;-72
2022/08/09 02:15:00;;;;;;;6.23;3.77;;;;;;;22.36;55.14;97086.22;6113866;23;20230;-73
2022/08/09 02:17:30;;;;;;;4.17;3.60;;;;;;;22.39;55.16;97075.38;6115058;23;20517;-72
2022/08/09 02:20:17;;;;;;;4.80;3.57;;;;;;;22.46;54.55;97076.47;6114735;23;20173;-73
2022/08/09 02:23:08;;;;;;;7.40;5.03;;;;;;;22.40;54.57;97074.38;6113268;23;20174;-73
2022/08/09 02:25:38;;;;;;;6.83;3.57;;;;;;;22.34;54.63;97082.88;6115025;23;20166;-72
2022/08/09 02:28:19;;;;;;;6.50;3.60;;;;;;;22.49;54.28;97070.06;6113601;23;20171;-72
2022/08/09 02:30:52;;;;;;;4.87;3.50;;;;;;;22.62;53.72;97076.75;6114715;23;20201;-73
2022/08/09 02:33:23;;;;;;;10.03;4.10;;;;;;;22.67;53.61;97075.50;6114615;23;20166;-73
2022/08/09 02:36:17;;;;;;;4.77;3.53;;;;;;;22.80;53.63;97070.69;6112996;23;20225;-72
2022/08/09 02:38:54;;;;;;;6.73;3.40;;;;;;;22.79;52.92;97067.25;6114893;23;20174;-74
2022/08/09 02:41:31;;;;;;;5.40;3.50;;;;;;;22.86;52.73;97067.47;6113744;23;20203;-73
2022/08/09 02:44:03;;;;;;;5.83;3.93;;;;;;;22.84;52.59;97061.50;6114285;23;20173;-73
2022/08/09 02:46:38;;;;;;;5.33;3.90;;;;;;;22.93;52.00;97068.56;6116646;23;20171;-73
2022/08/09 02:49:09;;;;;;;6.80;3.97;;;;;;;22.91;51.62;97057.31;6114575;23;20546;-73
2022/08/09 02:51:40;;;;;;;3.93;3.07;;;;;;;23.01;49.98;97061.59;6090292;23;20286;-73
2022/08/09 02:54:12;;;;;;;4.40;3.23;;;;;;;23.03;51.33;97058.78;6114514;23;20165;-73
2022/08/09 02:56:44;;;;;;;4.20;3.80;;;;;;;23.17;51.32;97060.94;6116188;23;20558;-73
2022/08/09 02:59:19;;;;;;;4.13;3.70;;;;;;;23.10;50.99;97057.25;6116126;23;20206;-73
2022/08/09 03:02:05;;;;;;;5.33;3.90;;;;;;;23.16;50.97;97059.31;6114379;23;20537;-72
2022/08/09 03:04:43;;;;;;;4.63;3.73;;;;;;;23.08;50.88;97062.66;6116188;23;20635;-72
2022/08/09 03:07:13;;;;;;;6.37;3.23;;;;;;;23.15;50.16;97062.91;6114794;23;20214;-72
2022/08/09 03:09:42;;;;;;;6.57;3.60;;;;;;;23.39;47.75;97068.50;6115769;23;20176;-73
2022/08/09 03:12:24;;;;;;;6.03;3.67;;;;;;;23.15;49.93;97054.97;6116256;23;20198;-73
2022/08/09 03:14:53;;;;;;;8.70;3.97;;;;;;;23.25;49.96;97063.69;6114588;23;20257;-73
2022/08/09 03:17:20;;;;;;;7.50;3.87;;;;;;;23.24;50.35;97046.19;6116139;23;20173;-73
2022/08/09 03:19:57;;;;;;;6.33;3.57;;;;;;;23.24;50.13;97056.75;6114439;23;20196;-73
2022/08/09 03:22:35;;;;;;;7.60;3.67;;;;;;;23.27;50.69;97067.00;6116040;23;20217;-73
2022/08/09 03:25:11;;;;;;;5.03;3.70;;;;;;;23.31;50.41;97058.66;6115829;23;20580;-72
2022/08/09 03:28:01;;;;;;;7.37;4.20;;;;;;;23.18;50.67;97047.63;6114328;23;20510;-73
2022/08/09 03:30:29;;;;;;;12.73;4.80;;;;;;;23.24;51.14;97062.88;6090131;23;20266;-73
2022/08/09 03:33:07;;;;;;;7.20;4.47;;;;;;;23.13;51.41;97056.94;6113800;23;20199;-72
2022/08/09 03:35:50;;;;;;;8.93;4.43;;;;;;;23.14;50.11;97061.25;6115490;23;20239;-72
2022/08/09 03:38:39;;;;;;;11.97;3.70;;;;;;;23.14;50.76;97055.97;6116166;23;20178;-72
2022/08/09 03:41:10;;;;;;;6.43;3.87;;;;;;;23.28;50.98;97048.38;6114338;23;20174;-72
2022/08/09 03:43:43;;;;;;;6.40;3.70;;;;;;;23.46;50.48;97056.38;6116361;23;20195;-72
2022/08/09 03:46:30;;;;;;;4.77;3.60;;;;;;;23.55;50.25;97050.19;6115195;23;20169;-72
2022/08/09 03:49:01;;;;;;;7.40;3.90;;;;;;;23.55;50.00;97052.00;6089472;23;20627;-71
2022/08/09 03:51:31;;;;;;;10.50;5.07;;;;;;;23.77;49.61;97047.09;6116134;23;20200;-71
2022/08/09 03:54:19;;;;;;;7.60;4.20;;;;;;;23.75;49.44;97057.00;6113978;23;20168;-72
2022/08/09 03:56:58;;;;;;;6.93;3.87;;;;;;;23.94;49.32;97059.50;6114981;23;20175;-72
2022/08/09 03:59:25;;;;;;;6.63;3.80;;;;;;;24.03;48.67;97053.31;6115168;23;20185;-72
2022/08/09 04:02:12;;;;;;;9.90;4.20;;;;;;;24.48;47.44;97058.47;6114716;23;20165;-72
2022/08/09 04:04:40;;;;;;;9.10;3.80;;;;;;;24.59;47.36;97065.28;6116202;23;20170;-72
2022/08/09 04:07:11;;;;;;;8.00;4.47;;;;;;;24.55;47.70;97056.84;6113998;23;20167;-72
2022/08/09 04:09:41;;;;;;;6.53;4.13;;;;;;;24.72;47.42;97063.06;6115808;23;20178;-73
2022/08/09 04:12:34;;;;;;;10.90;6.60;;;;;;;24.74;46.99;97067.25;6114878;23;20253;-73
2022/08/09 04:15:02;;;;;;;11.17;5.03;;;;;;;24.94;46.69;97057.25;6114680;23;20205;-74
2022/08/09 04:17:44;;;;;;;5.63;3.70;;;;;;;25.22;47.59;97058.72;6116058;23;20586;-74
2022/08/09 04:20:14;;;;;;;8.80;4.33;;;;;;;25.21;48.04;97059.69;6114185;23;20175;-73
2022/08/09 04:22:42;;;;;;;7.23;3.50;;;;;;;25.16;46.04;97061.19;6116100;23;20222;-72
2022/08/09 04:25:11;;;;;;;9.87;4.30;;;;;;;25.30;46.05;97074.66;6114549;23;20172;-73
2022/08/09 04:27:42;;;;;;;7.83;4.57;;;;;;;24.79;47.92;97072.09;6115563;23;20515;-72
2022/08/09 04:30:18;;;;;;;9.60;4.40;;;;;;;25.01;46.92;97066.25;6115749;23;20206;-73
2022/08/09 04:32:49;;;;;;;15.20;4.83;;;;;;;25.51;45.78;97072.41;6114335;23;20171;-72
2022/08/09 04:35:17;;;;;;;9.07;5.10;;;;;;;25.18;45.68;97081.25;6090166;23;20183;-74
2022/08/09 04:37:48;;;;;;;10.10;4.83;;;;;;;25.22;47.30;97084.41;6114292;23;20178;-74
2022/08/09 04:40:15;;;;;;;7.53;4.57;;;;;;;25.39;46.32;97073.69;6115847;23;20175;-75
